createdAt,value
2022-10-05T00:01:33.730Z,75.93
2022-10-05T00:04:19.945Z,76.27
2022-10-05T00:06:57.067Z,76.85
2022-10-05T00:09:25.660Z,76.87
2022-10-05T00:11:53.722Z,78.94
2022-10-05T00:14:28.002Z,79.20
2022-10-05T00:16:58.252Z,79.94
2022-10-05T00:19:34.527Z,78.04
2022-10-05T00:22:16.464Z,78.62
2022-10-05T00:24:45.597Z,78.51
2022-10-05T00:27:19.292Z,78.92
2022-10-05T00:29:49.662Z,79.50
2022-10-05T00:32:18.267Z,79.22
2022-10-05T00:34:47.635Z,78.24
2022-10-05T00:37:35.624Z,79.31
2022-10-05T00:40:14.511Z,79.08
2022-10-05T00:43:19.632Z,80.78
2022-10-05T00:46:25.030Z,81.16
2022-10-05T00:49:07.080Z,79.89
2022-10-05T00:51:41.305Z,79.25
2022-10-05T00:54:19.144Z,79.62
2022-10-05T00:57:08.904Z,79.66
2022-10-05T00:59:46.156Z,81.08
2022-10-05T01:02:46.281Z,80.30
2022-10-05T01:05:43.251Z,81.15
2022-10-05T01:08:52.331Z,80.45
2022-10-05T01:11:37.039Z,79.71
2022-10-05T01:14:34.339Z,80.19
2022-10-05T01:17:17.351Z,81.09
2022-10-05T01:20:15.964Z,81.42
2022-10-05T01:22:46.792Z,81.50
2022-10-05T01:25:32.664Z,80.63
2022-10-05T01:28:06.762Z,79.71
2022-10-05T01:30:59.239Z,81.00
2022-10-05T01:33:33.765Z,80.37
2022-10-05T01:36:07.700Z,80.19
2022-10-05T01:38:55.119Z,80.19
2022-10-05T01:41:30.693Z,80.12
2022-10-05T01:44:35.979Z,80.28
2022-10-05T01:47:17.826Z,79.78
2022-10-05T01:50:02.993Z,80.58
2022-10-05T01:52:48.017Z,80.11
2022-10-05T01:55:39.065Z,80.24
2022-10-05T01:58:10.195Z,79.92
2022-10-05T02:01:07.201Z,80.01
2022-10-05T02:03:44.685Z,79.82
2022-10-05T02:06:22.528Z,80.34
2022-10-05T02:08:58.925Z,80.78
2022-10-05T02:11:27.118Z,79.97
2022-10-05T02:14:12.331Z,79.61
2022-10-05T02:16:51.215Z,79.78
2022-10-05T02:19:41.329Z,80.25
2022-10-05T02:22:20.288Z,80.74
2022-10-05T02:24:54.713Z,82.52
2022-10-05T02:27:29.720Z,82.12
2022-10-05T02:30:03.305Z,82.49
2022-10-05T02:32:41.307Z,81.55
2022-10-05T02:35:15.838Z,81.74
2022-10-05T02:37:57.624Z,82.29
2022-10-05T02:40:57.410Z,81.83
2022-10-05T02:43:39.110Z,80.98
2022-10-05T02:46:26.080Z,80.86
2022-10-05T02:49:13.832Z,81.83
2022-10-05T02:51:58.753Z,82.05
2022-10-05T02:54:57.162Z,82.84
2022-10-05T02:57:31.540Z,83.19
2022-10-05T03:00:07.511Z,81.58
2022-10-05T03:02:52.674Z,80.79
2022-10-05T03:05:36.056Z,81.29
2022-10-05T03:08:37.013Z,81.49
2022-10-05T03:11:32.209Z,81.34
2022-10-05T03:14:15.774Z,80.57
2022-10-05T03:17:07.038Z,80.52
2022-10-05T03:20:04.371Z,80.73
2022-10-05T03:22:42.005Z,80.89
2022-10-05T03:25:31.334Z,81.09
2022-10-05T03:28:33.344Z,82.54
2022-10-05T03:31:02.729Z,82.56
2022-10-05T03:33:40.937Z,81.09
2022-10-05T03:36:38.059Z,81.62
2022-10-05T03:39:34.633Z,81.24
2022-10-05T03:42:29.323Z,81.04
2022-10-05T03:44:58.201Z,81.61
2022-10-05T03:47:34.145Z,81.62
2022-10-05T03:50:12.163Z,81.11
2022-10-05T03:53:04.916Z,81.05
2022-10-05T03:55:55.728Z,81.33
2022-10-05T03:58:34.774Z,81.96
2022-10-05T04:01:10.753Z,81.26
2022-10-05T04:03:47.286Z,81.04
2022-10-05T04:06:33.654Z,81.11
2022-10-05T04:09:15.773Z,81.82
2022-10-05T04:11:55.359Z,81.14
2022-10-05T04:15:00.483Z,80.70
2022-10-05T04:17:37.959Z,81.09
2022-10-05T04:20:25.148Z,81.53
2022-10-05T04:23:01.621Z,81.03
2022-10-05T04:25:36.442Z,80.34
2022-10-05T04:28:21.629Z,80.34
2022-10-05T04:30:53.300Z,80.49
2022-10-05T04:33:22.351Z,80.67
2022-10-05T04:36:14.252Z,81.07
2022-10-05T04:39:15.473Z,81.19
2022-10-05T04:42:14.591Z,81.92
2022-10-05T04:44:46.089Z,82.03
2022-10-05T04:47:14.443Z,81.79
2022-10-05T04:49:51.770Z,81.27
2022-10-05T04:52:20.316Z,81.49
2022-10-05T04:55:31.003Z,81.54
2022-10-05T04:58:41.400Z,82.06
2022-10-05T05:02:00.294Z,82.08
2022-10-05T05:05:03.832Z,82.61
2022-10-05T05:07:55.952Z,83.31
2022-10-05T05:11:03.255Z,82.05
2022-10-05T05:14:14.236Z,81.50
2022-10-05T05:16:44.830Z,81.72
2022-10-05T05:19:42.124Z,82.05
2022-10-05T05:22:44.938Z,81.94
2022-10-05T05:25:59.818Z,80.80
2022-10-05T05:28:51.816Z,77.95
2022-10-05T05:31:41.596Z,75.73
2022-10-05T05:34:30.420Z,73.57
2022-10-05T05:37:09.473Z,69.18
2022-10-05T05:40:07.994Z,67.23
2022-10-05T05:43:20.580Z,63.43
2022-10-05T05:45:56.451Z,59.90
2022-10-05T05:48:34.856Z,59.57
2022-10-05T05:51:12.955Z,65.11
2022-10-05T05:53:46.880Z,63.91
2022-10-05T05:56:27.331Z,64.40
2022-10-05T05:59:44.864Z,63.75
2022-10-05T06:02:22.080Z,56.36
2022-10-05T06:05:30.685Z,53.83
2022-10-05T06:08:07.849Z,53.66
2022-10-05T06:10:47.415Z,51.26
2022-10-05T06:13:33.097Z,51.97
2022-10-05T06:16:07.182Z,47.84
2022-10-05T06:18:38.462Z,45.94
2022-10-05T06:21:24.660Z,46.40
2022-10-05T06:24:11.619Z,43.95
2022-10-05T06:26:39.853Z,48.96
2022-10-05T06:29:21.516Z,46.77
2022-10-05T06:32:16.746Z,43.20
2022-10-05T06:34:56.109Z,42.72
2022-10-05T06:38:02.293Z,45.36
2022-10-05T06:40:30.682Z,43.42
2022-10-05T06:43:01.801Z,42.41
2022-10-05T06:45:59.395Z,41.58
2022-10-05T06:49:14.813Z,41.30
2022-10-05T06:52:20.438Z,40.05
2022-10-05T06:54:52.630Z,38.40
2022-10-05T06:57:33.580Z,37.15
2022-10-05T07:00:21.227Z,39.03
2022-10-05T07:03:02.901Z,37.29
2022-10-05T07:05:52.572Z,36.42
2022-10-05T07:09:02.111Z,35.43
2022-10-05T07:12:17.460Z,35.59
2022-10-05T07:14:52.163Z,34.86
2022-10-05T07:17:52.007Z,34.34
2022-10-05T07:20:43.555Z,33.06
2022-10-05T07:23:37.038Z,33.57
2022-10-05T07:26:40.819Z,33.20
2022-10-05T07:29:33.463Z,33.35
2022-10-05T07:32:25.707Z,33.19
2022-10-05T07:36:02.914Z,33.05
2022-10-05T07:39:59.750Z,34.01
2022-10-05T07:43:40.257Z,31.95
2022-10-05T07:46:21.466Z,31.47
2022-10-05T07:49:00.348Z,31.01
2022-10-05T07:51:45.434Z,30.84
2022-10-05T07:54:21.763Z,30.95
2022-10-05T07:57:00.326Z,29.75
2022-10-05T08:00:32.859Z,28.62
2022-10-05T08:03:52.414Z,28.28
2022-10-05T08:10:45.236Z,26.92
2022-10-05T08:13:28.751Z,26.15
2022-10-05T08:16:14.898Z,25.91
2022-10-05T08:19:02.011Z,25.35
2022-10-05T08:21:52.454Z,24.32
2022-10-05T08:24:26.218Z,24.13
2022-10-05T08:27:07.461Z,24.75
2022-10-05T08:29:42.316Z,24.06
2022-10-05T08:32:34.920Z,23.85
2022-10-05T08:35:21.412Z,24.38
2022-10-05T08:37:51.282Z,24.34
2022-10-05T08:40:27.134Z,24.33
2022-10-05T08:43:16.376Z,22.76
2022-10-05T08:46:04.143Z,22.65
2022-10-05T08:48:49.533Z,22.46
2022-10-05T08:51:49.703Z,21.87
2022-10-05T08:54:29.442Z,22.25
2022-10-05T08:57:41.321Z,21.69
2022-10-05T09:00:18.531Z,21.77
2022-10-05T09:03:23.886Z,21.58
2022-10-05T09:06:12.754Z,22.23
2022-10-05T09:09:06.492Z,22.09
2022-10-05T09:12:02.281Z,21.63
2022-10-05T09:15:24.271Z,21.63
2022-10-05T09:18:27.926Z,21.63
2022-10-05T09:21:06.172Z,22.22
2022-10-05T09:23:45.135Z,22.34
2022-10-05T09:26:41.135Z,22.20
2022-10-05T09:29:25.051Z,22.41
2022-10-05T09:32:22.113Z,22.49
2022-10-05T09:35:34.639Z,22.09
2022-10-05T09:38:31.761Z,21.74
2022-10-05T09:41:17.937Z,22.40
2022-10-05T09:44:08.603Z,21.90
2022-10-05T09:46:52.817Z,21.57
2022-10-05T09:49:33.607Z,21.36
2022-10-05T09:52:47.057Z,21.31
2022-10-05T09:55:50.722Z,21.43
2022-10-05T09:58:35.670Z,21.41
2022-10-05T10:01:34.353Z,21.41
2022-10-05T10:04:22.444Z,21.76
2022-10-05T10:07:13.543Z,21.87
2022-10-05T10:10:06.704Z,21.40
2022-10-05T10:13:14.515Z,21.52
2022-10-05T10:16:13.484Z,21.76
2022-10-05T10:19:12.956Z,21.78
2022-10-05T10:22:13.431Z,21.09
2022-10-05T10:25:21.541Z,20.65
2022-10-05T10:28:20.209Z,20.91
2022-10-05T10:31:22.343Z,20.80
2022-10-05T10:34:08.767Z,21.00
2022-10-05T10:37:32.587Z,20.82
2022-10-05T10:40:33.705Z,21.04
2022-10-05T10:43:30.220Z,21.10
2022-10-05T10:46:16.524Z,20.90
2022-10-05T10:48:55.877Z,21.38
2022-10-05T10:52:05.488Z,21.33
2022-10-05T10:55:04.713Z,21.55
2022-10-05T10:57:42.662Z,21.45
2022-10-05T11:00:28.912Z,21.58
2022-10-05T11:03:12.120Z,21.06
2022-10-05T11:06:10.338Z,21.23
2022-10-05T11:09:00.055Z,21.35
2022-10-05T11:12:12.688Z,21.78
2022-10-05T11:15:32.904Z,21.74
2022-10-05T11:18:01.067Z,22.02
2022-10-05T11:21:00.099Z,22.09
2022-10-05T11:24:09.914Z,22.22
2022-10-05T11:26:40.716Z,21.95
2022-10-05T11:29:28.456Z,21.91
2022-10-05T11:32:28.071Z,21.82
2022-10-05T11:34:59.148Z,22.69
2022-10-05T11:38:03.957Z,23.11
2022-10-05T11:40:47.844Z,23.30
2022-10-05T11:43:25.500Z,23.23
2022-10-05T11:45:57.128Z,22.84
2022-10-05T11:49:07.278Z,23.08
2022-10-05T11:51:38.485Z,23.59
2022-10-05T11:54:06.672Z,23.69
2022-10-05T11:56:42.766Z,23.87
2022-10-05T11:59:27.894Z,24.29
2022-10-05T12:02:04.722Z,24.70
2022-10-05T12:04:38.667Z,24.65
2022-10-05T12:07:33.261Z,24.43
2022-10-05T12:10:23.742Z,24.04
2022-10-05T12:13:33.398Z,23.90
2022-10-05T12:16:10.727Z,23.78
2022-10-05T12:18:51.538Z,23.80
2022-10-05T12:21:45.446Z,23.86
2022-10-05T12:25:14.860Z,24.11
2022-10-05T12:27:50.924Z,23.82
2022-10-05T12:30:59.196Z,24.20
2022-10-05T12:33:39.187Z,25.04
2022-10-05T12:36:31.859Z,25.10
2022-10-05T12:39:41.951Z,24.90
2022-10-05T12:42:41.959Z,25.20
2022-10-05T12:45:31.599Z,25.50
2022-10-05T12:48:02.324Z,25.92
2022-10-05T12:50:43.232Z,26.34
2022-10-05T12:53:28.890Z,26.59
2022-10-05T12:56:07.952Z,26.68
2022-10-05T12:58:57.692Z,26.75
2022-10-05T13:02:09.174Z,27.20
2022-10-05T13:05:11.493Z,27.38
2022-10-05T13:08:00.761Z,27.84
2022-10-05T13:11:01.180Z,27.88
2022-10-05T13:13:49.423Z,28.12
2022-10-05T13:16:42.914Z,28.34
2022-10-05T13:19:25.384Z,28.93
2022-10-05T13:22:05.242Z,29.32
2022-10-05T13:25:00.111Z,29.02
2022-10-05T13:27:37.037Z,28.63
2022-10-05T13:30:25.615Z,29.03
2022-10-05T13:33:08.329Z,29.49
2022-10-05T13:35:36.407Z,29.76
2022-10-05T13:38:23.185Z,29.51
2022-10-05T13:41:21.906Z,29.30
2022-10-05T13:43:52.677Z,29.98
2022-10-05T13:46:30.321Z,30.81
2022-10-05T13:49:16.285Z,30.04
2022-10-05T13:52:02.688Z,30.27
2022-10-05T13:54:57.398Z,30.42
2022-10-05T13:57:58.124Z,31.08
2022-10-05T14:00:27.484Z,31.45
2022-10-05T14:02:58.023Z,32.33
2022-10-05T14:05:29.923Z,32.08
2022-10-05T14:07:58.832Z,32.19
2022-10-05T14:10:39.493Z,32.59
2022-10-05T14:13:28.978Z,32.48
2022-10-05T14:16:04.764Z,33.24
2022-10-05T14:18:38.525Z,33.14
2022-10-05T14:21:13.177Z,32.86
2022-10-05T14:23:42.332Z,33.54
2022-10-05T14:26:36.166Z,33.46
2022-10-05T14:29:19.151Z,33.42
2022-10-05T14:32:15.289Z,33.28
2022-10-05T14:34:55.028Z,33.87
2022-10-05T14:37:26.311Z,34.18
2022-10-05T14:40:03.441Z,34.65
2022-10-05T14:42:47.071Z,34.72
2022-10-05T14:45:26.176Z,34.93
2022-10-05T14:48:10.044Z,35.57
2022-10-05T14:50:52.925Z,35.63
2022-10-05T14:53:26.236Z,35.77
2022-10-05T14:56:29.149Z,35.98
2022-10-05T14:59:01.288Z,36.41
2022-10-05T15:01:33.907Z,36.58
2022-10-05T15:04:43.638Z,36.63
2022-10-05T15:08:56.281Z,38.07
2022-10-05T15:16:22.431Z,38.85
2022-10-05T15:24:30.117Z,39.00
2022-10-05T15:28:43.623Z,40.24
2022-10-05T15:32:37.166Z,39.90
2022-10-05T15:41:43.184Z,40.28
2022-10-05T15:52:39.567Z,41.63
2022-10-05T16:02:58.031Z,43.91
2022-10-05T16:06:11.092Z,44.80
2022-10-05T16:09:05.043Z,43.41
2022-10-05T16:12:21.998Z,42.61
2022-10-05T16:15:59.177Z,43.90
2022-10-05T16:19:30.103Z,45.25
2022-10-05T16:22:50.577Z,47.10
2022-10-05T16:25:36.871Z,48.20
2022-10-05T16:28:50.571Z,49.36
2022-10-05T16:31:55.796Z,50.33
2022-10-05T17:09:29.018Z,58.21
2022-10-05T17:12:14.046Z,58.70
2022-10-05T17:15:10.787Z,58.04
2022-10-05T17:18:03.580Z,59.58
2022-10-05T17:20:47.610Z,60.49
2022-10-05T17:23:56.788Z,60.71
2022-10-05T17:27:11.104Z,60.99
2022-10-05T17:29:55.894Z,60.12
2022-10-05T17:32:36.338Z,59.95
2022-10-05T17:35:58.984Z,60.71
2022-10-05T17:38:41.119Z,61.89
2022-10-05T17:41:30.390Z,62.47
2022-10-05T17:48:18.629Z,63.50
2022-10-05T17:51:10.467Z,63.54
2022-10-05T17:54:04.845Z,61.85
2022-10-05T17:57:18.969Z,61.91
2022-10-05T18:00:00.555Z,64.13
2022-10-05T18:02:43.084Z,63.04
2022-10-05T18:05:14.026Z,61.58
2022-10-05T18:07:55.203Z,61.33
2022-10-05T18:10:30.072Z,60.85
2022-10-05T18:13:04.330Z,63.03
2022-10-05T18:15:48.757Z,63.74
2022-10-05T18:18:54.821Z,66.05
2022-10-05T18:21:24.770Z,62.93
2022-10-05T18:23:53.218Z,63.78
2022-10-05T18:26:59.722Z,64.48
2022-10-05T18:30:02.733Z,65.87
2022-10-05T18:32:52.644Z,66.82
2022-10-05T18:35:39.715Z,64.19
2022-10-05T18:38:33.413Z,63.78
2022-10-05T18:41:22.840Z,65.01
2022-10-05T18:44:04.421Z,66.39
2022-10-05T18:46:54.625Z,66.46
2022-10-05T18:49:49.734Z,67.13
2022-10-05T18:52:37.288Z,69.97
2022-10-05T18:55:35.126Z,67.60
2022-10-05T18:59:02.555Z,68.21
2022-10-05T19:01:43.039Z,67.34
2022-10-05T19:13:22.852Z,70.15
2022-10-05T19:15:58.415Z,67.49
2022-10-05T19:18:44.897Z,68.83
2022-10-05T19:21:13.114Z,68.92
2022-10-05T19:24:16.458Z,69.22
2022-10-05T19:27:08.007Z,70.19
2022-10-05T19:30:02.361Z,70.89
2022-10-05T19:32:43.875Z,70.45
2022-10-05T19:35:12.318Z,71.08
2022-10-05T19:38:11.747Z,73.02
2022-10-05T19:41:02.742Z,71.62
2022-10-05T19:43:39.189Z,72.54
2022-10-05T19:46:17.679Z,71.23
2022-10-05T19:48:53.253Z,72.32
2022-10-05T19:51:29.768Z,71.80
2022-10-05T19:54:02.196Z,70.72
2022-10-05T19:56:37.238Z,71.74
2022-10-05T19:59:20.340Z,73.36
2022-10-05T20:01:52.271Z,73.00
2022-10-05T20:04:37.650Z,73.49
2022-10-05T20:07:06.800Z,72.17
2022-10-05T20:09:58.350Z,73.07
2022-10-05T20:12:51.294Z,72.88
2022-10-05T20:15:41.106Z,71.87
2022-10-05T20:19:02.258Z,71.63
2022-10-05T20:21:47.584Z,72.42
2022-10-05T20:24:23.842Z,72.12
2022-10-05T20:27:27.616Z,73.82
2022-10-05T20:29:55.779Z,72.46
2022-10-05T20:32:26.420Z,73.66
2022-10-05T20:34:59.299Z,75.70
2022-10-05T20:37:28.141Z,74.24
2022-10-05T20:39:56.210Z,74.44
2022-10-05T20:42:25.645Z,74.85
2022-10-05T20:44:56.912Z,74.72
2022-10-05T20:47:26.497Z,75.13
2022-10-05T20:49:54.988Z,75.60
2022-10-05T20:52:23.493Z,74.72
2022-10-05T20:54:59.025Z,76.34
2022-10-05T20:57:28.318Z,76.76
2022-10-05T20:59:56.583Z,75.58
2022-10-05T21:02:25.128Z,74.92
2022-10-05T21:04:57.166Z,76.02
2022-10-05T21:07:25.932Z,74.81
2022-10-05T21:09:56.502Z,73.77
2022-10-05T21:12:25.996Z,75.75
2022-10-05T21:14:54.285Z,76.30
2022-10-05T21:17:22.363Z,76.11
2022-10-05T21:19:53.136Z,75.39
2022-10-05T21:22:21.977Z,75.57
2022-10-05T21:24:50.161Z,76.69
2022-10-05T21:27:18.736Z,76.58
2022-10-05T21:29:46.909Z,75.32
2022-10-05T21:32:15.797Z,75.98
2022-10-05T21:34:43.946Z,77.60
2022-10-05T21:37:12.112Z,78.06
2022-10-05T21:39:40.388Z,78.01
2022-10-05T21:42:08.646Z,77.99
2022-10-05T21:44:41.080Z,77.48
2022-10-05T21:47:12.603Z,77.93
2022-10-05T21:49:41.857Z,77.91
2022-10-05T21:52:18.182Z,79.15
2022-10-05T21:54:54.787Z,80.33
2022-10-05T21:57:25.967Z,80.20
2022-10-05T21:59:54.296Z,80.93
2022-10-05T22:02:33.289Z,80.80
2022-10-05T22:05:04.613Z,81.33
2022-10-05T22:07:38.601Z,82.11
2022-10-05T22:10:09.815Z,81.34
2022-10-05T22:12:46.555Z,81.42
2022-10-05T22:15:16.895Z,81.84
2022-10-05T22:17:47.955Z,82.63
2022-10-05T22:20:21.765Z,82.22
2022-10-05T22:22:54.141Z,82.04
2022-10-05T22:25:25.180Z,81.85
2022-10-05T22:28:05.183Z,82.55
2022-10-05T22:30:37.055Z,80.73
2022-10-05T22:33:09.703Z,80.30
2022-10-05T22:35:40.825Z,79.75
2022-10-05T22:38:11.629Z,79.75
2022-10-05T22:40:42.411Z,80.55
2022-10-05T22:43:13.782Z,80.17
2022-10-05T22:45:44.863Z,80.49
2022-10-05T22:48:16.215Z,82.12
2022-10-05T22:50:50.173Z,81.90
2022-10-05T22:53:36.479Z,83.34
2022-10-05T22:56:13.039Z,83.08
2022-10-05T22:58:44.709Z,83.03
2022-10-05T23:01:18.152Z,82.06
2022-10-05T23:03:49.066Z,81.42
2022-10-05T23:06:20.765Z,81.54
2022-10-05T23:08:52.751Z,82.01
2022-10-05T23:11:27.219Z,83.35
2022-10-05T23:14:00.049Z,82.71
2022-10-05T23:16:51.985Z,83.84
2022-10-05T23:19:23.935Z,83.22
2022-10-05T23:21:54.984Z,82.38
2022-10-05T23:24:25.974Z,81.20
2022-10-05T23:26:57.301Z,81.84
2022-10-05T23:29:28.899Z,81.98
2022-10-05T23:31:59.992Z,82.56
2022-10-05T23:34:31.177Z,81.84
2022-10-05T23:37:02.105Z,83.16
2022-10-05T23:39:32.910Z,84.33
2022-10-05T23:42:04.145Z,84.83
2022-10-05T23:44:35.546Z,84.95
2022-10-05T23:47:06.302Z,84.07
2022-10-05T23:49:37.605Z,84.16
2022-10-05T23:52:08.488Z,84.89
2022-10-05T23:54:39.665Z,84.56
2022-10-05T23:57:10.929Z,84.36
2022-10-05T23:59:39.353Z,83.46
